Time;durP1;ratioP1;P1;durP2;ratioP2;P2;SDS_P1;SDS_P2;PMS_P1;PMS_P2;Temp;Humidity;BMP_temperature;BMP_pressure;BME280_temperature;BME280_humidity;BME280_pressure;Samples;Min_cycle;Max_cycle;Signal;HPM_P1;HPM_P2
2020/12/25 00:00:49;;;;;;;5.38;0.70;;;;;;;3.85;90.16;102286.75;5092850;28;20525;-59
2020/12/25 00:03:34;;;;;;;2.60;0.50;;;;;;;3.74;90.03;102285.53;5112738;28;20126;-61
2020/12/25 00:06:02;;;;;;;4.78;0.50;;;;;;;3.68;90.07;102290.03;5113580;28;20044;-59
2020/12/25 00:08:29;;;;;;;3.83;0.50;;;;;;;3.63;90.26;102287.06;5094622;28;20048;-59
2020/12/25 00:10:56;;;;;;;4.18;0.90;;;;;;;3.58;90.37;102286.88;5093077;28;20052;-62
2020/12/25 00:13:22;;;;;;;5.95;0.65;;;;;;;3.56;90.52;102290.94;5107598;28;20561;-62
2020/12/25 00:15:49;;;;;;;4.60;0.77;;;;;;;3.56;90.61;102296.44;5113167;28;20058;-61
2020/12/25 00:18:16;;;;;;;5.90;0.82;;;;;;;3.57;90.78;102304.50;5099488;28;20048;-61
2020/12/25 00:20:48;;;;;;;5.17;1.00;;;;;;;3.59;90.86;102294.09;5092555;28;20432;-61
2020/12/25 00:23:16;;;;;;;6.60;1.25;;;;;;;3.64;90.99;102294.28;5104185;28;20045;-61
2020/12/25 00:25:43;;;;;;;2.47;0.60;;;;;;;3.68;90.84;102295.53;5112980;28;20498;-62
2020/12/25 00:28:10;;;;;;;4.60;0.70;;;;;;;3.69;90.92;102288.09;5102945;28;20067;-61
2020/12/25 00:30:42;;;;;;;3.60;0.50;;;;;;;3.70;90.73;102287.03;5092405;28;20406;-61
2020/12/25 00:33:12;;;;;;;1.75;0.45;;;;;;;3.70;90.49;102285.13;5100742;28;20402;-61
2020/12/25 00:35:41;;;;;;;1.65;0.40;;;;;;;3.68;90.71;102291.94;5112583;28;20439;-61
2020/12/25 00:38:08;;;;;;;1.60;0.30;;;;;;;3.67;90.62;102299.38;5110515;28;20044;-60
2020/12/25 00:40:41;;;;;;;4.15;0.60;;;;;;;3.63;90.55;102303.63;5102378;28;20043;-62
2020/12/25 00:43:08;;;;;;;1.92;0.35;;;;;;;3.58;90.61;102310.88;5110731;28;20050;-62
2020/12/25 00:45:35;;;;;;;2.22;0.40;;;;;;;3.55;90.61;102303.88;5101421;28;20050;-62
2020/12/25 00:48:02;;;;;;;4.18;0.80;;;;;;;3.52;90.52;102303.47;5111222;28;20052;-62
2020/12/25 00:50:30;;;;;;;8.27;1.05;;;;;;;3.47;90.98;102304.09;5103486;28;20554;-62
2020/12/25 00:52:57;;;;;;;4.22;0.80;;;;;;;3.46;90.89;102303.25;5092096;28;20052;-62
2020/12/25 00:55:23;;;;;;;3.72;0.60;;;;;;;3.46;90.84;102307.94;5109262;28;20046;-62
2020/12/25 00:57:52;;;;;;;5.90;0.90;;;;;;;3.45;90.85;102306.22;5111248;28;20055;-61
2020/12/25 01:00:21;;;;;;;4.78;0.70;;;;;;;3.42;91.06;102301.13;5093784;28;20141;-62
2020/12/25 01:02:48;;;;;;;2.58;0.40;;;;;;;3.39;90.92;102307.13;5112003;28;20059;-62
2020/12/25 01:05:15;;;;;;;4.03;0.70;;;;;;;3.35;90.89;102314.97;5094965;28;20449;-62
2020/12/25 01:07:41;;;;;;;2.83;0.50;;;;;;;3.32;91.00;102315.41;5091859;28;20052;-60
2020/12/25 01:10:08;;;;;;;3.35;0.60;;;;;;;3.30;91.09;102322.19;5105169;28;20072;-61
2020/12/25 01:12:35;;;;;;;5.63;0.82;;;;;;;3.28;91.09;102324.31;5112213;28;20433;-60
2020/12/25 01:15:03;;;;;;;2.45;0.60;;;;;;;3.21;90.84;102320.72;5099747;28;20082;-60
2020/12/25 01:17:29;;;;;;;7.22;0.90;;;;;;;3.17;91.07;102324.97;5091104;28;20509;-60
2020/12/25 01:19:56;;;;;;;6.95;1.05;;;;;;;3.16;91.03;102335.16;5101146;28;20137;-60
2020/12/25 01:22:23;;;;;;;4.63;1.00;;;;;;;3.15;91.32;102338.13;5111951;28;20047;-60
2020/12/25 01:24:50;;;;;;;7.13;1.00;;;;;;;3.16;91.47;102351.72;5103295;28;20040;-60
2020/12/25 01:27:16;;;;;;;7.88;0.88;;;;;;;3.21;91.73;102353.81;5091640;28;20494;-60
2020/12/25 01:29:43;;;;;;;6.85;1.08;;;;;;;3.26;91.83;102359.53;5096365;28;20031;-61
2020/12/25 01:32:11;;;;;;;9.20;1.13;;;;;;;3.33;91.78;102376.94;5111183;28;20055;-60
2020/12/25 01:34:37;;;;;;;13.23;1.35;;;;;;;3.41;91.92;102382.22;5108298;28;20433;-61
2020/12/25 01:37:04;;;;;;;12.55;1.42;;;;;;;3.53;91.79;102375.00;5091431;28;20130;-60
2020/12/25 01:39:31;;;;;;;8.70;0.98;;;;;;;3.61;91.14;102371.13;5091389;28;20056;-61
2020/12/25 01:41:58;;;;;;;8.13;0.80;;;;;;;3.65;91.25;102376.00;5111279;28;20047;-61
2020/12/25 01:44:24;;;;;;;11.35;1.10;;;;;;;3.66;90.78;102383.25;5111683;28;20490;-61
2020/12/25 01:46:52;;;;;;;11.27;1.08;;;;;;;3.66;90.50;102388.75;5106890;28;20057;-60
2020/12/25 01:49:19;;;;;;;9.57;1.50;;;;;;;3.67;90.26;102393.22;5111534;28;20082;-61
2020/12/25 01:51:46;;;;;;;11.95;2.55;;;;;;;3.74;90.32;102396.81;5093982;28;20040;-60
2020/12/25 01:54:13;;;;;;;20.63;1.80;;;;;;;3.81;90.36;102400.38;5091519;28;20046;-61
2020/12/25 01:56:42;;;;;;;21.98;1.98;;;;;;;3.87;90.61;102400.59;5105163;28;20048;-62
2020/12/25 01:59:09;;;;;;;20.90;1.83;;;;;;;3.88;90.53;102400.38;5110939;28;20504;-61
2020/12/25 02:01:37;;;;;;;14.82;1.60;;;;;;;3.87;90.44;102395.06;5098364;28;20465;-60
2020/12/25 02:04:03;;;;;;;15.32;2.13;;;;;;;3.86;90.38;102388.69;5091063;28;20078;-61
2020/12/25 02:06:38;;;;;;;12.75;1.40;;;;;;;3.88;90.61;102388.50;5099915;28;20122;-59
2020/12/25 02:09:05;;;;;;;6.38;0.95;;;;;;;3.86;90.47;102387.84;5111407;28;20462;-60
2020/12/25 02:11:33;;;;;;;12.88;1.92;;;;;;;3.86;90.13;102385.09;5102160;28;20079;-61
2020/12/25 02:14:00;;;;;;;9.13;1.15;;;;;;;3.86;90.19;102385.09;5090180;28;20042;-60
2020/12/25 02:16:27;;;;;;;9.80;1.17;;;;;;;3.88;90.09;102380.19;5096853;28;20513;-61
2020/12/25 02:18:54;;;;;;;8.07;0.98;;;;;;;3.88;90.05;102380.19;5111137;28;20105;-60
2020/12/25 02:21:21;;;;;;;9.70;1.02;;;;;;;3.88;89.66;102385.72;5106126;28;20477;-61
2020/12/25 02:23:48;;;;;;;10.35;1.23;;;;;;;3.88;89.75;102388.50;5090611;28;20075;-61
2020/12/25 02:26:15;;;;;;;10.50;1.17;;;;;;;3.88;89.65;102396.78;5092607;28;20127;-60
2020/12/25 02:28:41;;;;;;;8.10;1.30;;;;;;;3.87;89.58;102395.06;5110443;28;20078;-61
2020/12/25 02:31:09;;;;;;;16.35;2.25;;;;;;;3.86;89.55;102394.22;5111130;28;20051;-61
2020/12/25 02:33:36;;;;;;;18.10;1.90;;;;;;;3.89;89.64;102395.72;5110564;28;20048;-61
2020/12/25 02:36:02;;;;;;;9.73;1.35;;;;;;;3.91;89.62;102411.00;5110825;28;20473;-61
2020/12/25 02:38:30;;;;;;;15.15;1.73;;;;;;;3.92;89.36;102428.41;5092433;28;20078;-61
2020/12/25 02:40:57;;;;;;;11.05;1.25;;;;;;;3.92;88.92;102429.25;5090537;28;20414;-61
2020/12/25 02:43:23;;;;;;;10.00;1.13;;;;;;;3.93;88.45;102432.88;5106174;28;20054;-61
2020/12/25 02:45:50;;;;;;;11.45;1.25;;;;;;;3.91;88.45;102432.25;5110635;28;20122;-61
2020/12/25 02:48:17;;;;;;;6.90;1.02;;;;;;;3.91;88.35;102423.97;5096288;28;20059;-61
2020/12/25 02:50:44;;;;;;;9.32;0.90;;;;;;;3.88;88.16;102428.00;5090584;28;20052;-61
2020/12/25 02:53:10;;;;;;;11.98;1.20;;;;;;;3.87;87.96;102420.78;5101299;28;20054;-61
2020/12/25 02:55:38;;;;;;;11.93;1.45;;;;;;;3.87;87.92;102420.78;5110493;28;20066;-62
2020/12/25 02:58:05;;;;;;;7.15;0.75;;;;;;;3.87;87.62;102419.94;5101673;28;20040;-61
2020/12/25 03:00:31;;;;;;;5.00;0.70;;;;;;;3.85;87.55;102422.91;5090344;28;20499;-62
2020/12/25 03:02:58;;;;;;;6.93;0.93;;;;;;;3.82;87.40;102423.31;5096081;28;20048;-63
2020/12/25 03:05:32;;;;;;;6.50;0.90;;;;;;;3.77;87.39;102432.28;5110599;28;20490;-63
2020/12/25 03:07:59;;;;;;;5.40;0.80;;;;;;;3.72;87.48;102422.94;5105217;28;20101;-64
2020/12/25 03:10:26;;;;;;;8.05;0.82;;;;;;;3.64;87.61;102424.00;5089626;28;20563;-64
2020/12/25 03:12:53;;;;;;;5.97;0.70;;;;;;;3.59;87.92;102420.22;5092844;28;20048;-65
2020/12/25 03:15:21;;;;;;;8.38;1.23;;;;;;;3.54;87.72;102431.91;5113205;28;20509;-65
2020/12/25 03:17:48;;;;;;;9.20;1.00;;;;;;;3.54;88.16;102448.44;5113520;28;20448;-61
2020/12/25 03:20:14;;;;;;;8.23;1.33;;;;;;;3.55;88.18;102446.53;5094100;28;20461;-62
2020/12/25 03:22:41;;;;;;;7.85;1.00;;;;;;;3.57;88.11;102441.66;5093993;28;20044;-61
2020/12/25 03:25:08;;;;;;;8.10;1.20;;;;;;;3.59;88.09;102437.63;5111973;28;20040;-61
2020/12/25 03:27:35;;;;;;;6.47;0.80;;;;;;;3.60;87.97;102442.06;5114281;28;20047;-62
2020/12/25 03:30:03;;;;;;;9.88;0.93;;;;;;;3.64;87.93;102437.81;5097163;28;20040;-63
2020/12/25 03:32:30;;;;;;;6.90;0.90;;;;;;;3.64;87.70;102428.69;5093880;28;20439;-62
2020/12/25 03:34:57;;;;;;;4.78;0.82;;;;;;;3.60;87.63;102431.00;5107823;28;20108;-63
2020/12/25 03:37:23;;;;;;;6.63;0.63;;;;;;;3.58;87.63;102424.03;5113610;28;20475;-62
2020/12/25 03:39:50;;;;;;;5.45;0.55;;;;;;;3.55;87.45;102422.56;5112315;28;20055;-63
2020/12/25 03:42:17;;;;;;;6.40;0.63;;;;;;;3.52;87.46;102422.97;5097988;28;20051;-62
2020/12/25 03:44:44;;;;;;;4.60;0.70;;;;;;;3.48;87.58;102427.22;5098433;28;20073;-61
2020/12/25 03:47:12;;;;;;;5.32;0.60;;;;;;;3.45;87.67;102430.41;5113868;28;20036;-60
2020/12/25 03:49:38;;;;;;;3.80;0.60;;;;;;;3.41;87.71;102437.41;5113407;28;20035;-61
2020/12/25 03:52:05;;;;;;;5.13;0.65;;;;;;;3.37;87.88;102439.75;5113419;28;20127;-64
2020/12/25 03:54:32;;;;;;;7.97;0.77;;;;;;;3.37;87.95;102437.00;5108868;28;20047;-61
2020/12/25 03:56:58;;;;;;;7.10;0.70;;;;;;;3.38;88.03;102441.47;5093077;28;20426;-62
2020/12/25 03:59:25;;;;;;;9.45;0.90;;;;;;;3.39;88.05;102436.78;5095103;28;20407;-61
2020/12/25 04:01:52;;;;;;;8.73;1.10;;;;;;;3.41;87.94;102432.72;5113387;28;20031;-61
2020/12/25 04:04:19;;;;;;;10.15;1.52;;;;;;;3.44;87.95;102443.34;5113894;28;20454;-62
2020/12/25 04:06:46;;;;;;;14.77;1.52;;;;;;;3.47;88.05;102442.06;5093421;28;20556;-60
2020/12/25 04:09:13;;;;;;;8.55;1.40;;;;;;;3.53;87.96;102438.47;5093894;28;20032;-60
2020/12/25 04:11:39;;;;;;;10.27;1.60;;;;;;;3.55;87.81;102450.16;5111950;28;20039;-60
2020/12/25 04:14:06;;;;;;;7.28;1.00;;;;;;;3.58;87.35;102458.00;5113921;28;20131;-60
2020/12/25 04:16:33;;;;;;;8.77;1.05;;;;;;;3.63;86.72;102463.72;5097628;28;20127;-60
2020/12/25 04:19:00;;;;;;;4.95;0.88;;;;;;;3.67;86.67;102462.22;5093874;28;20048;-59
2020/12/25 04:21:27;;;;;;;4.57;0.63;;;;;;;3.72;86.38;102465.19;5106828;28;20047;-60
2020/12/25 04:23:54;;;;;;;6.47;0.82;;;;;;;3.76;86.38;102462.88;5113986;28;20054;-60
2020/12/25 04:26:21;;;;;;;7.10;0.85;;;;;;;3.79;86.50;102452.25;5101328;28;20075;-61
2020/12/25 04:28:47;;;;;;;9.45;1.20;;;;;;;3.81;86.16;102458.38;5093901;28;20105;-61
2020/12/25 04:31:14;;;;;;;7.68;1.00;;;;;;;3.81;86.13;102444.56;5102546;28;20069;-61
2020/12/25 04:33:41;;;;;;;8.80;1.13;;;;;;;3.81;86.49;102463.91;5113332;28;20076;-62
2020/12/25 04:36:27;;;;;;;6.82;1.23;;;;;;;3.79;86.34;102456.91;5103909;28;20048;-63
2020/12/25 04:38:54;;;;;;;6.43;1.10;;;;;;;3.78;86.52;102452.47;5093290;28;20086;-63
2020/12/25 04:41:21;;;;;;;6.75;0.90;;;;;;;3.75;86.55;102461.16;5100036;28;20047;-64
2020/12/25 04:43:51;;;;;;;8.48;1.10;;;;;;;3.72;86.59;102458.81;5113910;28;20058;-64
2020/12/25 04:46:18;;;;;;;8.25;0.93;;;;;;;3.68;86.63;102452.88;5113337;27;20502;-65
2020/12/25 04:48:45;;;;;;;9.07;1.35;;;;;;;3.65;86.79;102456.06;5113085;28;20111;-65
2020/12/25 04:51:12;;;;;;;9.23;0.82;;;;;;;3.63;86.80;102462.84;5109876;27;20119;-66
2020/12/25 04:53:40;;;;;;;10.98;1.30;;;;;;;3.60;86.82;102463.28;5092869;28;20040;-66
2020/12/25 04:56:07;;;;;;;13.80;1.55;;;;;;;3.57;86.83;102463.75;5092182;28;20047;-66
2020/12/25 04:58:33;;;;;;;6.75;1.00;;;;;;;3.54;86.87;102464.16;5113264;28;20069;-67
2020/12/25 05:01:04;;;;;;;14.57;1.40;;;;;;;3.54;87.09;102464.16;5113474;28;20528;-67
2020/12/25 05:03:34;;;;;;;13.25;1.60;;;;;;;3.53;86.99;102460.56;5092584;28;20058;-68
2020/12/25 05:06:03;;;;;;;11.68;1.50;;;;;;;3.55;87.07;102454.81;5092900;28;20468;-68
2020/12/25 05:08:36;;;;;;;10.45;1.35;;;;;;;3.59;86.82;102467.13;5111168;28;20040;-68
2020/12/25 05:11:04;;;;;;;11.13;1.50;;;;;;;3.62;86.67;102466.69;5113527;28;20043;-68
2020/12/25 05:13:31;;;;;;;9.07;1.23;;;;;;;3.63;86.44;102468.38;5100231;28;20044;-69
2020/12/25 05:15:58;;;;;;;13.10;1.48;;;;;;;3.67;86.26;102484.31;5092204;28;20130;-69
2020/12/25 05:18:31;;;;;;;10.25;1.35;;;;;;;3.70;85.81;102481.13;5092575;28;20062;-69
2020/12/25 05:21:08;;;;;;;6.65;1.00;;;;;;;3.73;85.41;102483.47;5110922;28;20065;-69
2020/12/25 05:23:37;;;;;;;4.47;0.88;;;;;;;3.76;84.98;102485.81;5108134;28;20044;-70
2020/12/25 05:26:06;;;;;;;8.70;1.08;;;;;;;3.79;83.78;102490.91;5094462;28;20040;-69
2020/12/25 05:28:37;;;;;;;6.47;0.80;;;;;;;3.83;83.90;102487.69;5100833;28;20051;-70
2020/12/25 05:31:04;;;;;;;9.88;1.30;;;;;;;3.84;84.24;102483.84;5095393;28;20131;-69
2020/12/25 05:33:32;;;;;;;7.95;0.80;;;;;;;3.79;83.76;102482.63;5099313;28;20047;-69
2020/12/25 05:35:59;;;;;;;8.43;0.80;;;;;;;3.74;83.62;102485.16;5097670;28;20064;-68
2020/12/25 05:38:27;;;;;;;3.38;0.90;;;;;;;3.68;83.20;102480.50;5095698;28;20514;-67
2020/12/25 05:40:54;;;;;;;3.65;0.50;;;;;;;3.63;83.36;102480.28;5100002;28;20107;-68
2020/12/25 05:43:22;;;;;;;3.67;0.55;;;;;;;3.58;83.23;102470.97;5098944;28;20063;-67
2020/12/25 05:45:49;;;;;;;3.03;0.40;;;;;;;3.53;83.32;102479.88;5112176;28;20078;-68
2020/12/25 05:48:16;;;;;;;5.18;0.73;;;;;;;3.47;83.27;102478.81;5107769;28;20044;-68
2020/12/25 05:50:43;;;;;;;4.53;0.55;;;;;;;3.44;83.47;102470.94;5091749;28;20097;-66
2020/12/25 05:53:10;;;;;;;5.43;0.75;;;;;;;3.40;83.58;102479.84;5094156;28;20055;-67
2020/12/25 05:55:38;;;;;;;5.63;0.68;;;;;;;3.38;83.53;102482.00;5112061;28;20044;-67
2020/12/25 05:58:05;;;;;;;7.25;0.60;;;;;;;3.36;83.81;102484.13;5111858;28;20085;-67
2020/12/25 06:00:34;;;;;;;8.45;0.88;;;;;;;3.35;83.83;102482.41;5112244;28;20035;-66
2020/12/25 06:03:01;;;;;;;7.05;0.95;;;;;;;3.34;83.86;102475.19;5112510;28;20545;-66
2020/12/25 06:05:28;;;;;;;8.45;1.20;;;;;;;3.34;83.71;102478.81;5092286;28;20447;-66
2020/12/25 06:07:56;;;;;;;8.70;1.00;;;;;;;3.35;83.53;102490.69;5092084;28;20105;-65
2020/12/25 06:10:25;;;;;;;11.55;1.15;;;;;;;3.38;83.51;102493.03;5108488;28;20040;-67
2020/12/25 06:12:53;;;;;;;11.95;1.25;;;;;;;3.43;83.38;102498.75;5111929;28;20567;-65
2020/12/25 06:15:26;;;;;;;8.63;1.40;;;;;;;3.54;84.16;102500.03;5097093;28;20048;-66
2020/12/25 06:18:15;;;;;;;17.35;1.92;;;;;;;3.64;84.29;102501.28;5091922;28;20131;-66
2020/12/25 06:20:48;;;;;;;14.23;1.58;;;;;;;3.65;84.14;102505.75;5106994;28;20081;-66
2020/12/25 06:23:16;;;;;;;15.98;1.50;;;;;;;3.66;84.24;102512.13;5092237;28;20405;-64
2020/12/25 06:25:43;;;;;;;14.55;1.50;;;;;;;3.67;84.47;102514.69;5091449;28;20067;-67
2020/12/25 06:28:12;;;;;;;10.02;1.83;;;;;;;3.66;84.48;102512.13;5091219;28;20556;-64
2020/12/25 06:30:38;;;;;;;7.95;1.10;;;;;;;3.64;84.44;102519.75;5104137;28;20035;-65
2020/12/25 06:33:06;;;;;;;13.43;1.42;;;;;;;3.62;84.44;102516.38;5111153;28;20055;-65
2020/12/25 06:35:37;;;;;;;10.10;1.23;;;;;;;3.60;84.59;102522.09;5100931;28;20093;-67
2020/12/25 06:38:11;;;;;;;14.85;1.88;;;;;;;3.59;84.24;102520.44;5105428;28;20143;-67
2020/12/25 06:40:38;;;;;;;13.05;1.33;;;;;;;3.59;84.27;102530.63;5110991;28;20044;-64
2020/12/25 06:43:12;;;;;;;13.98;1.20;;;;;;;3.63;83.83;102527.19;5111900;28;20047;-64
2020/12/25 06:45:39;;;;;;;9.30;0.95;;;;;;;3.67;83.85;102539.53;5107558;28;20067;-65
2020/12/25 06:48:15;;;;;;;9.98;1.40;;;;;;;3.72;83.75;102539.75;5111498;28;20044;-64
2020/12/25 06:50:44;;;;;;;10.02;1.17;;;;;;;3.75;83.75;102544.00;5107443;28;20048;-65
2020/12/25 06:53:10;;;;;;;7.65;0.98;;;;;;;3.77;83.86;102542.72;5094832;28;20038;-63
2020/12/25 06:55:42;;;;;;;8.52;1.35;;;;;;;3.77;83.56;102539.97;5098073;28;20111;-64
2020/12/25 06:58:10;;;;;;;7.13;1.13;;;;;;;3.76;83.04;102543.78;5115628;28;20051;-65
2020/12/25 07:00:40;;;;;;;8.30;0.93;;;;;;;3.75;82.45;102546.75;5111232;28;20512;-65
2020/12/25 07:03:11;;;;;;;8.70;0.85;;;;;;;3.75;82.54;102539.31;5094801;28;20047;-66
2020/12/25 07:05:47;;;;;;;9.13;1.05;;;;;;;3.78;82.63;102549.94;5097544;28;20047;-66
2020/12/25 07:08:27;;;;;;;8.52;0.90;;;;;;;3.79;82.96;102545.28;5114763;28;20035;-63
2020/12/25 07:11:05;;;;;;;7.35;1.10;;;;;;;3.79;83.12;102546.13;5111746;28;20067;-64
2020/12/25 07:13:32;;;;;;;13.07;1.27;;;;;;;3.80;83.13;102552.47;5094961;28;20072;-66
2020/12/25 07:16:01;;;;;;;6.70;1.00;;;;;;;3.83;83.14;102545.66;5096072;28;20463;-66
2020/12/25 07:18:28;;;;;;;10.55;1.42;;;;;;;3.83;83.03;102559.47;5103802;28;20092;-65
2020/12/25 07:20:57;;;;;;;11.18;1.10;;;;;;;3.81;83.30;102563.28;5112524;28;20075;-66
2020/12/25 07:23:24;;;;;;;11.95;1.40;;;;;;;3.80;82.53;102558.84;5112818;28;20048;-64
2020/12/25 07:25:53;;;;;;;8.98;1.15;;;;;;;3.83;82.60;102565.00;5115250;28;20047;-65
2020/12/25 07:28:23;;;;;;;5.57;0.90;;;;;;;3.84;82.31;102558.41;5114579;28;20051;-64
2020/12/25 07:30:51;;;;;;;9.05;0.93;;;;;;;3.83;82.31;102562.22;5114461;28;20047;-64
2020/12/25 07:33:18;;;;;;;17.58;1.58;;;;;;;3.78;82.00;102560.97;5101662;28;20394;-63
2020/12/25 07:35:45;;;;;;;7.70;0.90;;;;;;;3.77;81.86;102573.09;5114164;28;20110;-63
2020/12/25 07:38:28;;;;;;;;;;;;;;;3.70;81.08;102565.84;5111973;28;20083;-63
2020/12/25 07:40:56;;;;;;;8.07;1.00;;;;;;;3.67;81.52;102563.50;5093251;28;20007;-65
2020/12/25 07:43:22;;;;;;;6.10;1.00;;;;;;;3.67;81.28;102569.03;5109382;28;20393;-64
2020/12/25 07:45:50;;;;;;;8.85;1.00;;;;;;;3.66;81.61;102573.69;5114455;28;20042;-66
2020/12/25 07:48:18;;;;;;;9.70;1.23;;;;;;;3.66;81.36;102567.34;5100551;28;20616;-67
2020/12/25 07:50:46;;;;;;;7.22;0.70;;;;;;;3.64;81.36;102570.31;5093817;28;20047;-63
2020/12/25 07:53:14;;;;;;;6.35;0.70;;;;;;;3.64;81.26;102573.06;5105394;28;20092;-63
2020/12/25 07:55:44;;;;;;;7.88;0.90;;;;;;;3.63;81.21;102573.28;5114242;28;20127;-64
2020/12/25 07:58:12;;;;;;;11.73;0.80;;;;;;;3.65;81.54;102579.44;5103768;28;20078;-66
2020/12/25 08:00:38;;;;;;;9.57;1.30;;;;;;;3.66;81.61;102576.47;5093372;28;20407;-65
2020/12/25 08:03:06;;;;;;;7.68;1.40;;;;;;;3.68;81.55;102592.81;5101478;28;20048;-66
2020/12/25 08:05:33;;;;;;;8.10;1.10;;;;;;;3.72;81.96;102594.94;5113848;28;20043;-64
2020/12/25 08:08:01;;;;;;;10.32;1.15;;;;;;;3.78;82.10;102605.16;5108379;28;20071;-64
2020/12/25 08:10:29;;;;;;;6.20;0.77;;;;;;;3.85;82.38;102604.28;5102912;28;20074;-67
2020/12/25 08:12:59;;;;;;;4.82;0.55;;;;;;;3.89;82.20;102589.84;5109908;28;20109;-66
2020/12/25 08:15:27;;;;;;;6.18;0.52;;;;;;;3.90;82.18;102582.44;5093695;28;20044;-63
2020/12/25 08:17:57;;;;;;;6.03;0.70;;;;;;;3.92;82.13;102572.00;5095110;28;20048;-60
2020/12/25 08:20:24;;;;;;;5.90;0.70;;;;;;;3.93;81.88;102579.25;5110241;28;20043;-62
2020/12/25 08:22:57;;;;;;;7.32;0.90;;;;;;;3.93;82.51;102574.56;5114159;28;20040;-61
2020/12/25 08:25:25;;;;;;;9.23;0.80;;;;;;;3.92;82.53;102578.38;5113192;28;20381;-62
2020/12/25 08:27:52;;;;;;;6.20;0.52;;;;;;;3.91;82.56;102586.88;5114108;28;20135;-62
2020/12/25 08:30:21;;;;;;;8.63;0.82;;;;;;;3.89;82.75;102581.56;5094213;28;20040;-62
2020/12/25 08:32:49;;;;;;;8.10;1.00;;;;;;;3.90;82.83;102583.28;5093286;28;20136;-61
2020/12/25 08:35:18;;;;;;;8.65;0.80;;;;;;;3.91;82.91;102587.75;5110274;28;20130;-61
2020/12/25 08:37:58;;;;;;;7.90;0.90;;;;;;;3.93;83.16;102588.38;5113739;28;20050;-63
2020/12/25 08:40:30;;;;;;;10.88;1.25;;;;;;;3.98;83.04;102591.34;5111433;28;20138;-62
2020/12/25 08:43:09;;;;;;;11.90;1.55;;;;;;;4.05;83.33;102597.72;5093643;28;20044;-61
2020/12/25 08:45:38;;;;;;;6.95;1.27;;;;;;;4.11;83.37;102596.88;5109886;28;20047;-61
2020/12/25 08:48:06;;;;;;;12.13;1.60;;;;;;;4.17;83.13;102603.44;5113237;28;20063;-61
2020/12/25 08:50:33;;;;;;;7.68;1.33;;;;;;;4.20;83.31;102591.94;5112943;28;20039;-60
2020/12/25 08:53:14;;;;;;;9.95;1.92;;;;;;;4.24;83.21;102606.19;5113284;28;20055;-61
2020/12/25 08:55:41;;;;;;;13.55;1.38;;;;;;;4.20;83.35;102610.47;5097583;28;20135;-59
2020/12/25 08:58:09;;;;;;;9.85;1.27;;;;;;;4.18;83.77;102607.91;5092929;28;20052;-61
2020/12/25 09:00:36;;;;;;;13.68;1.88;;;;;;;4.17;83.76;102611.75;5105231;28;20036;-60
2020/12/25 09:03:03;;;;;;;7.15;1.15;;;;;;;4.18;83.70;102607.91;5094350;28;20378;-60
2020/12/25 09:05:30;;;;;;;9.77;1.30;;;;;;;4.20;83.91;102605.75;5085058;27;20147;-61
2020/12/25 09:07:57;;;;;;;11.35;1.40;;;;;;;4.24;83.94;102615.31;5091906;28;20641;-61
2020/12/25 09:10:24;;;;;;;9.52;1.10;;;;;;;4.28;83.60;102624.91;5084318;28;20123;-62
2020/12/25 09:12:51;;;;;;;7.70;1.23;;;;;;;4.34;83.02;102626.81;5071460;28;20120;-63
2020/12/25 09:15:18;;;;;;;11.23;1.20;;;;;;;4.42;83.04;102628.47;5076699;28;20075;-63
2020/12/25 09:17:47;;;;;;;5.30;0.70;;;;;;;4.49;82.79;102630.19;5083006;28;20499;-63
2020/12/25 09:20:14;;;;;;;9.48;0.85;;;;;;;4.56;82.67;102632.09;5075767;28;20040;-64
2020/12/25 09:22:41;;;;;;;12.38;1.42;;;;;;;4.62;82.31;102636.72;5091435;28;20044;-64
2020/12/25 09:25:07;;;;;;;9.40;1.30;;;;;;;4.71;82.19;102638.22;5090334;28;20097;-65
2020/12/25 09:27:35;;;;;;;9.55;1.08;;;;;;;4.89;82.21;102640.28;5071935;28;20395;-65
2020/12/25 09:30:03;;;;;;;6.45;1.13;;;;;;;5.27;82.00;102638.41;5071792;28;20154;-66
2020/12/25 09:32:30;;;;;;;5.03;0.93;;;;;;;5.82;81.30;102636.78;5091492;28;20410;-67
2020/12/25 09:34:57;;;;;;;9.45;1.45;;;;;;;6.30;80.36;102636.22;5092676;28;20123;-69
2020/12/25 09:37:24;;;;;;;8.40;1.00;;;;;;;6.69;79.31;102653.56;5073448;28;20054;-71
2020/12/25 09:39:51;;;;;;;6.35;0.90;;;;;;;6.91;76.99;102655.66;5071678;28;20127;-70
2020/12/25 09:42:17;;;;;;;5.50;0.85;;;;;;;7.01;76.88;102646.78;5086935;28;20513;-70
2020/12/25 09:44:44;;;;;;;4.82;1.17;;;;;;;7.25;76.45;102679.16;5091530;28;20383;-69
2020/12/25 09:47:11;;;;;;;5.00;0.60;;;;;;;7.60;76.57;102670.13;5086868;28;20123;-61
2020/12/25 09:49:38;;;;;;;6.07;0.60;;;;;;;7.52;76.87;102663.00;5092086;28;20083;-58
2020/12/25 09:52:05;;;;;;;5.13;0.57;;;;;;;7.20;77.08;102673.44;5080562;28;20045;-57
2020/12/25 09:54:32;;;;;;;2.72;0.40;;;;;;;6.89;77.79;102666.13;5071666;28;20132;-60
2020/12/25 09:56:59;;;;;;;3.22;0.40;;;;;;;6.59;78.09;102658.78;5079121;28;20051;-56
2020/12/25 09:59:25;;;;;;;5.57;0.80;;;;;;;6.32;79.10;102656.25;5091824;28;20058;-57
2020/12/25 10:01:52;;;;;;;7.43;0.95;;;;;;;6.12;79.22;102661.13;5085556;28;20032;-60
2020/12/25 10:04:19;;;;;;;8.50;1.10;;;;;;;5.95;79.65;102657.22;5071013;28;20488;-58
2020/12/25 10:06:45;;;;;;;6.88;0.82;;;;;;;5.80;79.67;102657.47;5074935;28;20133;-56
2020/12/25 10:09:13;;;;;;;7.22;0.80;;;;;;;5.67;80.15;102660.34;5091749;28;20491;-60
2020/12/25 10:11:40;;;;;;;6.00;0.68;;;;;;;5.57;80.27;102658.06;5089269;28;20040;-61
2020/12/25 10:14:07;;;;;;;7.53;1.02;;;;;;;5.48;80.17;102654.69;5071112;28;20044;-59
2020/12/25 10:16:34;;;;;;;5.57;1.00;;;;;;;5.44;80.74;102666.44;5071714;28;20472;-58
2020/12/25 10:19:01;;;;;;;11.63;1.25;;;;;;;5.45;80.48;102670.91;5088670;28;21072;-57
2020/12/25 10:21:27;;;;;;;5.82;1.13;;;;;;;5.47;81.01;102663.22;5091785;28;20068;-57
2020/12/25 10:23:54;;;;;;;5.97;0.65;;;;;;;5.44;80.98;102663.66;5073663;28;20418;-58
2020/12/25 10:26:22;;;;;;;5.78;0.80;;;;;;;5.40;80.74;102663.25;5070708;28;20123;-60
2020/12/25 10:28:48;;;;;;;6.03;0.70;;;;;;;5.37;80.98;102668.41;5086196;28;20580;-58
2020/12/25 10:31:15;;;;;;;3.63;0.70;;;;;;;5.36;81.04;102669.47;5091723;28;20070;-61
2020/12/25 10:33:42;;;;;;;6.07;1.25;;;;;;;5.33;81.25;102668.00;5077920;28;20049;-58
2020/12/25 10:36:10;;;;;;;4.38;0.65;;;;;;;5.32;81.11;102669.06;5071235;28;20574;-58
2020/12/25 10:38:37;;;;;;;4.90;0.85;;;;;;;5.33;81.29;102669.91;5081339;28;20463;-59
2020/12/25 10:41:06;;;;;;;6.82;1.15;;;;;;;5.39;81.47;102655.19;5091105;28;20448;-59
2020/12/25 10:43:33;;;;;;;7.55;1.35;;;;;;;5.47;81.74;102660.47;5082539;28;20105;-59
2020/12/25 10:46:00;;;;;;;6.78;1.38;;;;;;;5.54;81.78;102664.91;5071163;28;20045;-60
2020/12/25 10:48:27;;;;;;;9.48;1.38;;;;;;;5.96;82.05;102672.78;5076459;28;20085;-59
2020/12/25 10:50:54;;;;;;;9.70;1.40;;;;;;;6.53;81.63;102661.41;5091087;28;20086;-60
2020/12/25 10:53:20;;;;;;;5.20;1.30;;;;;;;6.71;80.68;102656.94;5085009;28;20333;-61
2020/12/25 10:55:47;;;;;;;7.85;1.17;;;;;;;6.61;80.38;102657.47;5070776;28;20041;-60
2020/12/25 10:58:14;;;;;;;6.90;0.98;;;;;;;6.46;80.13;102659.75;5072366;28;20407;-57
2020/12/25 11:00:42;;;;;;;6.63;1.23;;;;;;;6.62;81.04;102663.84;5090446;28;20074;-61
2020/12/25 11:03:09;;;;;;;12.57;1.30;;;;;;;7.01;79.38;102663.44;5091305;28;20105;-61
2020/12/25 11:05:36;;;;;;;8.55;1.17;;;;;;;7.01;79.46;102665.34;5070864;28;20372;-60
2020/12/25 11:08:03;;;;;;;7.88;1.13;;;;;;;6.79;79.32;102657.50;5070254;28;20076;-55
2020/12/25 11:10:46;;;;;;;5.95;0.90;;;;;;;6.48;79.90;102664.00;5090666;28;20036;-61
2020/12/25 11:13:13;;;;;;;8.65;0.90;;;;;;;6.24;80.07;102656.53;5091058;28;20040;-55
2020/12/25 11:15:40;;;;;;;6.10;0.98;;;;;;;5.99;80.41;102666.78;5072234;28;20044;-56
2020/12/25 11:18:08;;;;;;;5.88;1.02;;;;;;;5.80;80.44;102672.19;5070920;28;20044;-60
2020/12/25 11:20:35;;;;;;;6.80;1.13;;;;;;;5.78;81.43;102668.81;5085496;28;20048;-56
2020/12/25 11:23:01;;;;;;;5.97;0.75;;;;;;;6.10;81.29;102666.03;5090430;28;20140;-58
2020/12/25 11:25:28;;;;;;;7.75;0.90;;;;;;;7.08;80.65;102664.22;5077470;28;20055;-55
2020/12/25 11:27:55;;;;;;;6.25;1.08;;;;;;;7.70;77.86;102653.78;5070809;28;20055;-60
2020/12/25 11:30:21;;;;;;;6.70;1.08;;;;;;;8.09;77.05;102657.00;5080297;28;20036;-60
2020/12/25 11:32:48;;;;;;;4.80;0.80;;;;;;;8.07;76.05;102653.63;5090831;28;20095;-58
2020/12/25 11:35:16;;;;;;;4.50;0.80;;;;;;;7.76;76.14;102643.66;5082985;28;20049;-59